Tampa, FL

1:39 PM EST on December 09, 2016 (GMT -0500)
West Park | | Change Station

Elev 46 ft 28.00 °N, 82.52 °W | Updated 9 minutes ago

Mostly Cloudy
Mostly Cloudy
56.5 °F
Feels Like 56.5 °F
N
0.0
Wind Variable Wind from North
Gusts 0.0 mph

Today
High -- | Low -- °F
--% Chance of Precip.
Yesterday
High -- | Low -- °F
Precip. -- in
Pressure 30.30 in
Visibility 10.0 miles
Clouds Mostly Cloudy 16000 ft
Dew Point 41 °F
Humidity 57%
Rainfall 0.05 in
Snow Depth Not available.
7:10 AM 5:35 PM
Waxing Gibbous, 76% visible
METAR KTPA 091753Z 04008KT 10SM BKN160 13/04 A3030 RMK AO2 SLP259 60001 T01330044 10133 20106 58014
Pressure 30.30 in
Visibility 10.0 miles
Clouds Mostly Cloudy 16000 ft
Dew Point 41 °F
Humidity 57%
Rainfall 0.05 in
Snow Depth Not available.
7:10 AM 5:35 PM
Waxing Gibbous, 76% visible
METAR KTPA 091753Z 04008KT 10SM BKN160 13/04 A3030 RMK AO2 SLP259 60001 T01330044 10133 20106 58014

10-Day Weather Forecast

Almanac

Astronomy

Dec. 09, 2016 Rise Set
Actual Time
Civil Twilight
Nautical Twilight
Astronomical Twilight
Moon
Length of Visible Light
Length of Day
Tomorrow will be .
, % of the Moon is Illuminated

Today's Extremes

State Highs State Lows

Community

WunderPhotos

Upload Photos

1,956,499 photos uploaded!

WunderBlog® & News

Nearby

Air Quality

  Air Quality AQ Index Pollutant
Not available.

Snow Depth

Station Depth Elevation

Earthquake Activity

City Distance Mag. Time & Date
Minimum magnitude displayed is 2.5.

Coastal Water Temperatures

Place Temperature

Stations

Nearby Weather Stations

Station Location Temp. Windchill Dew Point Humidity Wind Precip. Elev Updated Type
                   

Watches & Warnings

There are currently no watches in effect.